Time;durP1;ratioP1;P1;durP2;ratioP2;P2;SDS_P1;SDS_P2;PMS_P1;PMS_P2;Temp;Humidity;BMP_temperature;BMP_pressure;BME280_temperature;BME280_humidity;BME280_pressure;Samples;Min_cycle;Max_cycle;Signal;HPM_P1;HPM_P2
2023/10/12 00:02:34;;;;;;;9.60;6.70;;;;;;;8.69;100.00;98082.48;110119;1243;60545;-57
2023/10/12 00:05:10;;;;;;;7.70;6.00;;;;;;;8.66;100.00;98080.54;110181;1243;60550;-59
2023/10/12 00:07:45;;;;;;;9.00;6.00;;;;;;;8.65;100.00;98076.45;110147;1243;70515;-58
2023/10/12 00:10:23;;;;;;;8.60;6.50;;;;;;;8.63;100.00;98077.56;110129;1244;69155;-58
2023/10/12 00:12:59;;;;;;;8.10;6.30;;;;;;;8.61;100.00;98071.81;110111;1244;69398;-59
2023/10/12 00:15:37;;;;;;;8.30;6.10;;;;;;;8.57;100.00;98065.59;110144;1243;60547;-58
2023/10/12 00:18:10;;;;;;;10.50;7.40;;;;;;;8.52;100.00;98061.51;110141;1242;60487;-59
2023/10/12 00:20:53;;;;;;;7.80;6.50;;;;;;;8.46;100.00;98059.77;110141;1243;72335;-58
2023/10/12 00:23:30;;;;;;;9.80;6.40;;;;;;;8.41;100.00;98056.04;110144;1242;69514;-56
2023/10/12 00:26:05;;;;;;;7.90;5.80;;;;;;;8.36;100.00;98050.71;110105;1241;69357;-57
2023/10/12 00:28:39;;;;;;;9.20;6.60;;;;;;;8.33;100.00;98054.34;110122;1243;60807;-58
2023/10/12 00:31:19;;;;;;;9.10;6.50;;;;;;;8.29;100.00;98051.94;110125;1244;60500;-58
2023/10/12 00:33:54;;;;;;;7.80;5.70;;;;;;;8.25;100.00;98046.96;110099;1244;72162;-59
2023/10/12 00:36:36;;;;;;;8.30;6.00;;;;;;;8.20;100.00;98047.23;110128;1244;67509;-59
2023/10/12 00:39:11;;;;;;;8.10;6.00;;;;;;;8.15;100.00;98045.56;110124;1244;69394;-59
2023/10/12 00:41:44;;;;;;;8.00;6.00;;;;;;;8.09;100.00;98046.04;110101;1243;60560;-59
2023/10/12 00:44:26;;;;;;;8.30;6.40;;;;;;;8.04;100.00;98044.73;110093;1243;60438;-57
2023/10/12 00:47:11;;;;;;;8.60;5.70;;;;;;;8.00;100.00;98041.70;110108;1242;72228;-59
2023/10/12 00:49:48;;;;;;;7.50;5.10;;;;;;;7.94;100.00;98041.83;110121;1244;68320;-59
2023/10/12 00:52:26;;;;;;;11.90;7.20;;;;;;;7.89;100.00;98042.91;110113;1244;69212;-56
2023/10/12 00:55:21;;;;;;;10.10;6.80;;;;;;;7.85;100.00;98042.63;110132;1240;60547;-59
2023/10/12 00:57:51;;;;;;;9.80;6.50;;;;;;;7.80;100.00;98039.59;110091;1241;60687;-59
2023/10/12 01:00:26;;;;;;;10.30;6.80;;;;;;;7.78;100.00;98037.80;110162;1241;72586;-58
2023/10/12 01:03:07;;;;;;;9.10;7.40;;;;;;;7.75;100.00;98032.89;110209;1244;69320;-59
2023/10/12 01:05:40;;;;;;;14.10;9.90;;;;;;;7.75;100.00;98033.23;110173;1241;69582;-60
2023/10/12 01:08:18;;;;;;;10.10;7.70;;;;;;;7.74;100.00;98029.67;110194;1240;60555;-60
2023/10/12 01:10:57;;;;;;;9.70;7.50;;;;;;;7.74;100.00;98030.51;110195;1244;60430;-58
2023/10/12 01:13:43;;;;;;;11.90;8.20;;;;;;;7.77;100.00;98023.63;110242;1242;72026;-58
2023/10/12 01:16:23;;;;;;;8.80;7.60;;;;;;;7.82;100.00;98020.23;110215;1241;69198;-59
2023/10/12 01:19:05;;;;;;;8.30;6.80;;;;;;;7.88;100.00;98018.88;110181;1242;68558;-57
2023/10/12 01:21:44;;;;;;;11.30;7.40;;;;;;;7.88;100.00;98012.95;110139;1244;60550;-58
2023/10/12 01:24:18;;;;;;;8.40;6.40;;;;;;;7.87;100.00;98008.70;110228;1245;60492;-58
2023/10/12 01:26:53;;;;;;;10.80;7.90;;;;;;;7.82;100.00;98003.73;110178;1241;71499;-58
2023/10/12 01:29:32;;;;;;;7.80;6.90;;;;;;;7.76;100.00;98001.64;110212;1244;69252;-59
2023/10/12 01:34:56;;;;;;;8.40;6.00;;;;;;;7.61;100.00;97997.17;110104;1245;60520;-57
2023/10/12 01:37:47;;;;;;;9.00;7.00;;;;;;;7.54;100.00;97997.40;110172;1242;60499;-59
2023/10/12 01:40:26;;;;;;;8.80;6.10;;;;;;;7.47;100.00;97994.13;110184;1241;72285;-57
2023/10/12 01:43:12;;;;;;;7.30;5.80;;;;;;;7.41;100.00;97988.52;110155;1245;69239;-58
2023/10/12 01:45:47;;;;;;;8.40;6.30;;;;;;;7.36;100.00;97987.88;110154;1241;69205;-58
2023/10/12 01:48:23;;;;;;;7.80;6.30;;;;;;;7.32;100.00;97988.81;110175;1241;60940;-60
2023/10/12 01:50:55;;;;;;;9.00;6.50;;;;;;;7.30;100.00;97989.95;110162;1245;60559;-58
2023/10/12 01:53:32;;;;;;;9.70;7.30;;;;;;;7.27;100.00;97992.70;110145;1241;72017;-58
2023/10/12 01:56:11;;;;;;;8.60;6.60;;;;;;;7.24;100.00;97989.73;110215;1245;68522;-57
2023/10/12 01:58:54;;;;;;;9.70;7.30;;;;;;;7.22;100.00;97991.55;110094;1244;68340;-58
2023/10/12 02:01:33;;;;;;;8.80;6.40;;;;;;;7.22;100.00;97990.89;110106;1241;60537;-58
2023/10/12 02:04:06;;;;;;;9.30;6.30;;;;;;;7.21;100.00;97994.38;110206;1241;60489;-59
2023/10/12 02:06:46;;;;;;;8.10;6.10;;;;;;;7.18;100.00;97990.55;110188;1241;72217;-57
2023/10/12 02:09:22;;;;;;;12.00;8.60;;;;;;;7.17;100.00;97991.64;110184;1245;69388;-57
2023/10/12 02:11:57;;;;;;;9.20;6.60;;;;;;;7.12;100.00;97988.58;110132;1241;67765;-60
2023/10/12 02:14:33;;;;;;;9.70;7.00;;;;;;;7.06;100.00;97986.29;110163;1242;60501;-57
2023/10/12 02:17:11;;;;;;;8.90;5.80;;;;;;;6.98;100.00;97984.58;110114;1245;60544;-57
2023/10/12 02:19:49;;;;;;;7.40;6.30;;;;;;;6.94;100.00;97983.92;110118;1245;72241;-58
2023/10/12 02:22:24;;;;;;;8.70;5.80;;;;;;;6.90;100.00;97981.19;110181;1243;69304;-58
2023/10/12 02:25:18;;;;;;;9.40;6.10;;;;;;;6.88;100.00;97980.40;110230;1242;68595;-58
2023/10/12 02:27:58;;;;;;;7.50;5.70;;;;;;;6.88;100.00;97978.31;110144;1242;60473;-58
2023/10/12 02:30:36;;;;;;;7.60;5.50;;;;;;;6.87;100.00;97975.75;110201;1242;60525;-58
2023/10/12 02:33:17;;;;;;;7.90;5.50;;;;;;;6.85;100.00;97973.42;110186;1243;72316;-58
2023/10/12 02:35:54;;;;;;;8.10;5.30;;;;;;;6.84;100.00;97970.88;110195;1245;68575;-59
2023/10/12 02:38:31;;;;;;;5.70;4.50;;;;;;;6.83;100.00;97967.48;110196;1245;69355;-58
2023/10/12 02:41:04;;;;;;;6.70;4.50;;;;;;;6.81;100.00;97962.56;110115;1244;60546;-58
2023/10/12 02:43:37;;;;;;;6.50;5.40;;;;;;;6.79;100.00;97960.93;110092;1244;60553;-57
2023/10/12 02:46:21;;;;;;;7.90;5.80;;;;;;;6.75;100.00;97965.62;110211;1244;71670;-58
2023/10/12 02:48:53;;;;;;;9.30;6.80;;;;;;;6.73;100.00;97963.64;110215;1243;69293;-58
2023/10/12 02:51:25;;;;;;;10.20;6.80;;;;;;;6.69;100.00;97964.19;110168;1242;69533;-58
2023/10/12 02:54:02;;;;;;;9.10;6.50;;;;;;;6.64;100.00;97962.33;110192;1242;60500;-58
2023/10/12 02:56:35;;;;;;;8.90;6.40;;;;;;;6.60;100.00;97962.52;110233;1244;60500;-58
2023/10/12 02:59:08;;;;;;;8.80;5.90;;;;;;;6.58;100.00;97963.64;110159;1243;71416;-57
2023/10/12 03:01:40;;;;;;;8.20;6.00;;;;;;;6.56;100.00;97957.16;110146;1243;68592;-60
2023/10/12 03:04:12;;;;;;;6.50;5.10;;;;;;;6.55;100.00;97956.88;110161;1244;68515;-58
2023/10/12 03:06:55;;;;;;;6.60;5.20;;;;;;;6.53;100.00;97953.89;110172;1245;60548;-58
2023/10/12 03:09:36;;;;;;;7.20;5.00;;;;;;;6.51;100.00;97953.75;110157;1250;60456;-59
2023/10/12 03:12:09;;;;;;;8.20;5.80;;;;;;;6.50;100.00;97954.70;110088;1241;72435;-59
2023/10/12 03:14:41;;;;;;;9.20;6.50;;;;;;;6.50;100.00;97954.70;110184;1243;68500;-58
2023/10/12 03:17:10;;;;;;;8.30;6.30;;;;;;;6.48;100.00;97951.18;110226;1241;69298;-58
2023/10/12 03:19:47;;;;;;;9.40;6.50;;;;;;;6.47;100.00;97956.06;110160;1243;60506;-59
2023/10/12 03:22:25;;;;;;;9.00;6.00;;;;;;;6.46;100.00;97952.64;110200;1241;60566;-60
2023/10/12 03:25:05;;;;;;;6.10;4.80;;;;;;;6.45;100.00;97952.84;110193;1243;72896;-60
2023/10/12 03:27:40;;;;;;;6.90;5.80;;;;;;;6.43;100.00;97950.34;110182;1241;69314;-57
2023/10/12 03:30:13;;;;;;;7.90;5.80;;;;;;;6.42;100.00;97949.19;110164;1241;69278;-56
2023/10/12 03:32:44;;;;;;;10.30;5.70;;;;;;;6.42;100.00;97945.20;110043;1243;60539;-57
2023/10/12 03:35:23;;;;;;;9.10;5.90;;;;;;;6.43;100.00;97944.33;110122;1244;60457;-58
2023/10/12 03:38:00;;;;;;;7.40;5.80;;;;;;;6.43;100.00;97944.30;110146;1244;72466;-57
2023/10/12 03:43:30;;;;;;;10.40;7.10;;;;;;;6.35;100.00;97946.20;110095;1249;68392;-58
2023/10/12 03:48:49;;;;;;;7.60;5.80;;;;;;;6.29;100.00;97949.48;110172;1244;60437;-58
2023/10/12 03:54:11;;;;;;;7.80;6.10;;;;;;;6.21;100.00;97949.84;110164;1243;68549;-61
2023/10/12 03:56:42;;;;;;;7.60;5.60;;;;;;;6.17;100.00;97950.39;110130;1244;69894;-58
2023/10/12 03:59:19;;;;;;;10.20;6.30;;;;;;;6.13;100.00;97951.04;110139;1241;60562;-59
2023/10/12 04:01:53;;;;;;;7.10;4.70;;;;;;;6.08;100.00;97950.96;110172;1242;60512;-59
2023/10/12 04:04:54;;;;;;;8.70;6.70;;;;;;;6.02;100.00;97948.45;110143;1243;72143;-56
2023/10/12 04:07:17;;;;;;;7.20;5.70;;;;;;;5.97;100.00;97950.27;110144;1243;69133;-57
2023/10/12 04:09:53;;;;;;;9.30;7.50;;;;;;;5.95;100.00;97948.80;110119;1243;69726;-57
2023/10/12 04:15:05;;;;;;;9.20;7.00;;;;;;;5.93;100.00;97950.45;110154;1243;60489;-57
2023/10/12 04:17:47;;;;;;;8.90;6.60;;;;;;;5.91;100.00;97949.64;110138;1244;72100;-57
2023/10/12 04:20:17;;;;;;;8.20;5.60;;;;;;;5.92;100.00;97945.98;110118;1244;68527;-57
2023/10/12 04:25:32;;;;;;;8.70;6.00;;;;;;;5.92;100.00;97952.39;110085;1244;60478;-57
2023/10/12 04:28:23;;;;;;;10.90;6.80;;;;;;;5.89;100.00;97949.90;110135;1242;60501;-61
2023/10/12 04:33:39;;;;;;;7.00;4.80;;;;;;;5.86;100.00;97951.38;110163;1244;69329;-57
2023/10/12 04:44:06;;;;;;;6.70;6.00;;;;;;;5.83;100.00;97955.54;110106;1243;72060;-59
2023/10/12 04:46:46;;;;;;;7.50;5.20;;;;;;;5.81;100.00;97955.98;110142;1241;69132;-59
2023/10/12 04:57:34;;;;;;;8.00;5.70;;;;;;;5.76;100.00;97962.73;110104;1241;71602;-58
2023/10/12 05:00:24;;;;;;;8.40;6.20;;;;;;;5.80;100.00;97969.34;110116;1241;70365;-57
2023/10/12 05:02:58;;;;;;;6.40;4.50;;;;;;;5.85;100.00;97967.88;110141;1242;69123;-58
2023/10/12 05:07:59;;;;;;;6.60;4.80;;;;;;;5.99;100.00;97976.12;110117;1244;60470;-57
2023/10/12 05:13:10;;;;;;;11.90;7.70;;;;;;;6.18;100.00;97979.92;110150;1243;69097;-61
2023/10/12 05:15:41;;;;;;;10.90;6.90;;;;;;;6.26;100.00;97978.00;110143;1241;69301;-59
2023/10/12 05:18:12;;;;;;;10.70;7.90;;;;;;;6.29;100.00;97979.94;110121;1244;60500;-59
2023/10/12 05:20:42;;;;;;;11.00;7.20;;;;;;;6.34;100.00;97981.05;110105;1243;60567;-59
2023/10/12 05:23:12;;;;;;;9.00;6.80;;;;;;;6.41;100.00;97984.03;110120;1244;72588;-59
2023/10/12 05:26:07;;;;;;;9.90;6.60;;;;;;;6.54;100.00;97987.07;110107;1244;68316;-59
2023/10/12 05:28:47;;;;;;;8.20;5.90;;;;;;;6.75;100.00;97996.46;110110;1242;69244;-59
2023/10/12 05:31:20;;;;;;;8.00;5.90;;;;;;;6.93;100.00;97993.85;110130;1244;61021;-59
2023/10/12 05:36:42;;;;;;;13.50;8.00;;;;;;;7.42;100.00;97992.44;110126;1244;72662;-60
2023/10/12 05:39:14;;;;;;;13.00;9.00;;;;;;;7.74;100.00;97997.41;110114;1242;68875;-60
2023/10/12 05:41:47;;;;;;;12.80;10.30;;;;;;;8.01;100.00;97996.52;110140;1244;69250;-60
2023/10/12 05:44:17;;;;;;;16.60;10.60;;;;;;;8.30;100.00;98000.48;110142;1243;60615;-60
2023/10/12 05:46:51;;;;;;;18.00;12.10;;;;;;;8.55;100.00;98001.95;110203;1242;60474;-60
2023/10/12 05:49:23;;;;;;;18.40;11.50;;;;;;;8.73;100.00;98004.25;110164;1242;72212;-60
2023/10/12 05:51:53;;;;;;;14.30;10.50;;;;;;;8.96;100.00;98008.86;110083;1242;68531;-61
2023/10/12 05:54:23;;;;;;;17.10;11.10;;;;;;;9.26;100.00;98011.30;110129;1244;69418;-61
2023/10/12 05:56:52;;;;;;;15.20;11.40;;;;;;;9.57;100.00;98013.52;110179;1243;60936;-61
2023/10/12 05:59:24;;;;;;;15.40;10.60;;;;;;;9.80;100.00;98016.81;110179;1244;60434;-60
2023/10/12 06:01:53;;;;;;;16.00;11.00;;;;;;;10.06;100.00;98011.38;110157;1243;72628;-60
2023/10/12 06:04:22;;;;;;;14.90;11.80;;;;;;;10.32;100.00;98013.48;110137;1243;69568;-60
2023/10/12 06:06:53;;;;;;;15.80;11.80;;;;;;;10.60;100.00;98010.99;110123;1246;69668;-59
2023/10/12 06:09:24;;;;;;;16.20;10.50;;;;;;;10.95;100.00;98010.52;110087;1244;60512;-61
2023/10/12 06:11:54;;;;;;;14.10;10.80;;;;;;;11.27;100.00;98011.24;110115;1244;60534;-61
2023/10/12 06:14:23;;;;;;;17.50;11.40;;;;;;;11.55;99.95;98013.92;110103;1243;72681;-61
2023/10/12 06:17:02;;;;;;;16.10;12.30;;;;;;;11.72;100.00;98010.81;110146;1243;69275;-59
2023/10/12 06:19:36;;;;;;;13.00;10.40;;;;;;;11.96;100.00;98005.60;110106;1246;69185;-60
2023/10/12 06:22:13;;;;;;;12.60;9.90;;;;;;;12.30;99.75;98003.35;110167;1244;60490;-60
2023/10/12 06:24:44;;;;;;;13.20;8.90;;;;;;;12.60;89.60;98001.73;110145;1245;60581;-60
2023/10/12 06:29:54;;;;;;;10.40;7.80;;;;;;;13.24;89.85;98006.17;110113;1244;69343;-60
2023/10/12 06:32:33;;;;;;;11.00;8.60;;;;;;;13.51;85.09;98007.89;110082;1243;69854;-59
2023/10/12 06:38:24;;;;;;;11.50;8.20;;;;;;;13.84;83.39;98007.46;110220;1245;60495;-61
2023/10/12 06:45:56;;;;;;;7.70;6.30;;;;;;;14.65;83.16;97999.74;109972;1243;69925;-62
2023/10/12 06:51:05;;;;;;;6.20;5.00;;;;;;;15.49;82.97;97999.56;110180;1244;60487;-59
2023/10/12 06:53:37;;;;;;;8.90;6.00;;;;;;;15.84;79.74;98004.87;110133;1244;70562;-58
2023/10/12 07:01:53;;;;;;;5.50;4.50;;;;;;;16.42;75.72;98001.86;110128;1243;60491;-62
2023/10/12 07:04:27;;;;;;;6.90;5.70;;;;;;;16.69;72.58;97994.06;110103;1242;60517;-60
2023/10/12 07:07:00;;;;;;;7.10;5.50;;;;;;;16.57;71.89;97993.84;110168;1244;72807;-60
2023/10/12 07:09:48;;;;;;;5.20;4.70;;;;;;;16.72;71.38;97993.77;110130;1243;68505;-59
2023/10/12 07:12:18;;;;;;;6.00;4.80;;;;;;;16.82;70.60;97995.89;110150;1244;69303;-60
2023/10/12 07:14:47;;;;;;;;;;;;;;;17.08;69.39;97994.44;110157;1241;60505;-60
2023/10/12 07:17:17;;;;;;;;;;;;;;;17.49;67.58;97992.92;110111;1244;60496;-62
2023/10/12 07:19:53;;;;;;;5.30;4.40;;;;;;;17.52;66.84;97994.83;110154;1249;71686;-61
2023/10/12 07:22:23;;;;;;;6.80;5.20;;;;;;;17.72;66.11;97996.03;110146;1243;70648;-60
2023/10/12 07:24:53;;;;;;;7.30;5.00;;;;;;;18.25;65.18;97987.61;110119;1243;69031;-60
2023/10/12 07:27:24;;;;;;;4.80;4.10;;;;;;;18.73;63.36;97988.02;110094;1243;60511;-60
2023/10/12 07:30:08;;;;;;;6.40;5.80;;;;;;;18.81;62.01;97986.16;110148;1244;60538;-61
2023/10/12 07:32:40;;;;;;;6.00;4.50;;;;;;;19.75;64.19;97988.85;110182;1243;72005;-61
2023/10/12 07:35:18;;;;;;;6.90;5.20;;;;;;;19.60;59.46;97981.30;110145;1244;68521;-60
2023/10/12 07:37:47;;;;;;;7.30;5.40;;;;;;;20.08;58.50;97984.09;110089;1244;69240;-60
2023/10/12 07:40:22;;;;;;;;;;;;;;;19.97;57.31;97982.40;110129;1242;60575;-60
2023/10/12 07:42:52;;;;;;;8.60;4.70;;;;;;;19.90;57.09;97980.45;110153;1242;60877;-60
2023/10/12 07:45:27;;;;;;;4.40;3.90;;;;;;;20.03;56.77;97977.84;110128;1244;72199;-60
2023/10/12 07:48:00;;;;;;;4.70;3.80;;;;;;;20.96;58.34;97981.48;110203;1243;69156;-60
2023/10/12 07:50:37;;;;;;;4.70;3.70;;;;;;;21.55;52.86;97979.01;110120;1241;69827;-60
2023/10/12 07:53:21;;;;;;;8.60;5.70;;;;;;;21.87;50.89;97975.81;110102;1244;60572;-60
2023/10/12 07:56:00;;;;;;;6.20;4.40;;;;;;;22.11;50.60;97974.97;110154;1243;60453;-60
2023/10/12 07:58:30;;;;;;;6.50;5.20;;;;;;;21.84;50.40;97978.02;110115;1244;72079;-60
2023/10/12 08:01:21;;;;;;;6.30;5.40;;;;;;;21.97;50.55;97968.88;110165;1244;69215;-60
2023/10/12 08:03:52;;;;;;;7.40;5.40;;;;;;;21.69;49.69;97967.88;110096;1243;69119;-60
2023/10/12 08:11:51;;;;;;;5.90;4.40;;;;;;;22.30;48.34;97955.42;110141;1243;72153;-60
2023/10/12 08:19:44;;;;;;;4.90;4.10;;;;;;;23.70;44.73;97957.95;110174;1244;60494;-60
2023/10/12 08:22:26;;;;;;;3.10;2.80;;;;;;;23.79;44.14;97951.93;110202;1245;60525;-60
2023/10/12 08:24:59;;;;;;;4.80;4.20;;;;;;;23.60;43.42;97952.38;110147;1244;72751;-60
2023/10/12 08:27:52;;;;;;;5.10;3.70;;;;;;;23.96;42.98;97952.00;110140;1245;68797;-61
2023/10/12 08:30:47;;;;;;;5.40;4.20;;;;;;;24.19;42.03;97953.60;110131;1244;68687;-60
2023/10/12 08:33:14;;;;;;;6.20;3.60;;;;;;;24.23;41.62;97946.30;110179;1241;60497;-61
2023/10/12 08:38:40;;;;;;;5.60;4.10;;;;;;;24.44;41.35;97941.73;110201;1244;72488;-62
2023/10/12 08:41:20;;;;;;;4.50;3.50;;;;;;;24.63;40.13;97942.31;110146;1244;69201;-62
2023/10/12 08:43:59;;;;;;;4.40;3.30;;;;;;;24.32;40.71;97939.40;110171;1243;69277;-61
2023/10/12 08:52:17;;;;;;;4.40;3.20;;;;;;;25.07;40.28;97936.99;110146;1243;72874;-62
2023/10/12 08:54:53;;;;;;;6.50;3.50;;;;;;;25.22;39.34;97935.79;110111;1244;69800;-61
2023/10/12 08:57:37;;;;;;;4.20;3.60;;;;;;;24.18;40.81;97933.59;110087;1244;69791;-60
2023/10/12 09:03:00;;;;;;;5.00;3.50;;;;;;;25.02;40.32;97928.52;110071;1242;60536;-61
2023/10/12 09:05:31;;;;;;;4.50;3.90;;;;;;;25.80;39.72;97923.90;110095;1243;72327;-61
2023/10/12 09:10:51;;;;;;;3.70;3.20;;;;;;;25.84;38.11;97913.88;110054;1243;69711;-61
2023/10/12 09:13:24;;;;;;;4.70;3.00;;;;;;;26.89;38.37;97909.33;110095;1244;60545;-62
2023/10/12 09:15:56;;;;;;;4.80;3.10;;;;;;;27.01;36.79;97906.99;110047;1244;60735;-60
2023/10/12 09:18:33;;;;;;;4.00;3.30;;;;;;;27.44;36.70;97909.90;110076;1243;72762;-61
2023/10/12 09:21:18;;;;;;;4.70;3.80;;;;;;;27.57;35.57;97906.51;110055;1244;69806;-62
2023/10/12 09:23:52;;;;;;;3.10;2.70;;;;;;;27.27;35.46;97904.98;110024;1243;70461;-60
2023/10/12 09:26:30;;;;;;;4.60;3.40;;;;;;;27.17;35.97;97901.46;110061;1244;60498;-59
2023/10/12 09:36:53;;;;;;;3.90;3.50;;;;;;;26.47;35.57;97888.40;110094;1241;68541;-61
2023/10/12 09:39:28;;;;;;;6.60;4.30;;;;;;;27.32;35.08;97888.17;110077;1243;60564;-60
2023/10/12 09:42:09;;;;;;;4.20;3.60;;;;;;;27.07;34.59;97879.58;110099;1242;60559;-60
2023/10/12 09:44:40;;;;;;;5.50;4.10;;;;;;;26.90;35.33;97877.66;110111;1244;72930;-60
2023/10/12 09:47:15;;;;;;;5.80;3.30;;;;;;;27.04;35.01;97872.61;110080;1245;69243;-60
2023/10/12 09:49:54;;;;;;;4.30;3.40;;;;;;;27.35;34.92;97869.21;110139;1241;68568;-60
2023/10/12 09:52:46;;;;;;;4.00;3.10;;;;;;;27.89;34.29;97857.79;110121;1245;60500;-62
2023/10/12 09:55:24;;;;;;;4.80;3.50;;;;;;;28.82;32.88;97849.50;110065;1244;60946;-60
2023/10/12 09:57:55;;;;;;;3.50;3.20;;;;;;;28.86;32.99;97850.73;110090;1244;72965;-61
2023/10/12 10:00:28;;;;;;;4.90;3.70;;;;;;;28.98;32.13;97847.38;110168;1241;69410;-60
2023/10/12 10:03:03;;;;;;;4.10;3.20;;;;;;;28.69;32.06;97845.41;110143;1244;69879;-60
2023/10/12 10:06:03;;;;;;;4.40;3.30;;;;;;;26.89;34.31;97838.69;110138;1244;60511;-60
2023/10/12 10:08:32;;;;;;;4.70;3.50;;;;;;;27.60;33.82;97830.59;110167;1244;60503;-61
2023/10/12 10:11:11;;;;;;;3.50;2.80;;;;;;;29.03;32.17;97828.91;110121;1244;72663;-60
2023/10/12 10:13:46;;;;;;;4.10;2.20;;;;;;;29.39;31.75;97824.84;110074;1246;69048;-60
2023/10/12 10:16:19;;;;;;;3.50;2.50;;;;;;;29.67;31.77;97814.82;110124;1242;69605;-60
2023/10/12 10:19:38;;;;;;;3.60;2.60;;;;;;;29.84;30.54;97809.94;110154;1244;60552;-60
2023/10/12 10:21:51;;;;;;;3.90;2.70;;;;;;;30.09;30.53;97804.83;110054;1244;60438;-61
2023/10/12 10:24:24;;;;;;;3.70;3.00;;;;;;;29.75;30.38;97804.82;110121;1244;71464;-60
2023/10/12 10:27:09;;;;;;;3.10;2.50;;;;;;;30.09;30.23;97795.34;110129;1241;69193;-60
2023/10/12 10:29:56;;;;;;;4.30;2.60;;;;;;;29.52;30.49;97785.41;110190;1241;68962;-61
2023/10/12 10:32:30;;;;;;;4.00;3.20;;;;;;;29.58;31.12;97781.70;110200;1243;60507;-61
2023/10/12 10:35:04;;;;;;;5.10;3.30;;;;;;;29.40;30.62;97780.23;110158;1244;60554;-61
2023/10/12 10:38:04;;;;;;;4.10;2.50;;;;;;;29.54;30.29;97774.73;110160;1244;72786;-61
2023/10/12 10:40:45;;;;;;;3.20;2.70;;;;;;;29.31;30.98;97777.14;110242;1245;69284;-61
2023/10/12 10:43:15;;;;;;;3.40;2.30;;;;;;;29.86;30.39;97773.05;110141;1244;69255;-61
2023/10/12 10:45:56;;;;;;;3.70;2.70;;;;;;;29.65;30.02;97770.27;110149;1244;60486;-61
2023/10/12 10:48:28;;;;;;;3.90;2.80;;;;;;;29.95;29.51;97770.11;110102;1244;60502;-61
2023/10/12 10:51:04;;;;;;;3.60;2.40;;;;;;;29.64;29.34;97766.61;110180;1245;72630;-61
2023/10/12 10:53:37;;;;;;;3.50;1.80;;;;;;;29.39;30.06;97763.46;110192;1243;69263;-61
2023/10/12 10:56:16;;;;;;;3.50;2.70;;;;;;;30.22;29.04;97760.40;110178;1243;70010;-60
2023/10/12 10:58:48;;;;;;;2.80;2.20;;;;;;;30.48;28.39;97752.88;110109;1241;60504;-61
2023/10/12 11:01:20;;;;;;;2.80;2.00;;;;;;;29.79;29.09;97748.02;110150;1244;60553;-61
2023/10/12 11:03:49;;;;;;;4.20;2.60;;;;;;;29.19;29.64;97746.17;110158;1244;73092;-61
2023/10/12 11:06:22;;;;;;;3.20;2.50;;;;;;;29.29;30.02;97739.37;110110;1248;69831;-60
2023/10/12 11:09:14;;;;;;;2.70;2.00;;;;;;;28.88;30.08;97739.79;110107;1243;69782;-60
2023/10/12 11:11:48;;;;;;;2.60;2.10;;;;;;;29.43;29.65;97730.33;110147;1245;60511;-60
2023/10/12 11:14:18;;;;;;;3.00;2.20;;;;;;;29.63;29.22;97730.55;110176;1246;60509;-61
2023/10/12 11:16:48;;;;;;;3.20;2.20;;;;;;;29.39;29.90;97724.20;110188;1251;72183;-61
2023/10/12 11:19:23;;;;;;;2.90;2.30;;;;;;;29.58;29.31;97718.75;110094;1243;69155;-61
2023/10/12 11:21:52;;;;;;;2.30;1.60;;;;;;;29.60;29.61;97724.46;110137;1242;68483;-61
2023/10/12 11:24:24;;;;;;;3.10;2.20;;;;;;;29.75;29.27;97723.98;110115;1241;60500;-61
2023/10/12 11:26:57;;;;;;;3.60;2.20;;;;;;;30.14;28.63;97719.89;110128;1244;60505;-60
2023/10/12 11:29:27;;;;;;;2.40;1.80;;;;;;;30.99;28.19;97713.46;110099;1241;72227;-60
2023/10/12 11:32:11;;;;;;;4.40;2.20;;;;;;;30.90;28.09;97712.38;110164;1243;69162;-60
2023/10/12 11:34:53;;;;;;;3.50;2.00;;;;;;;31.75;27.03;97708.35;110131;1244;69691;-60
2023/10/12 11:37:26;;;;;;;3.40;2.10;;;;;;;31.55;26.83;97707.95;110119;1244;60519;-60
2023/10/12 11:39:57;;;;;;;4.10;2.30;;;;;;;31.19;26.71;97703.52;110153;1246;60615;-59
2023/10/12 11:42:28;;;;;;;2.90;1.80;;;;;;;31.34;26.73;97700.23;110109;1251;72155;-60
2023/10/12 11:45:06;;;;;;;4.00;1.70;;;;;;;31.55;26.82;97698.23;110101;1246;69749;-60
2023/10/12 11:47:39;;;;;;;3.40;1.70;;;;;;;31.36;26.64;97693.81;110164;1247;69624;-61
2023/10/12 11:50:11;;;;;;;2.20;1.70;;;;;;;31.70;26.21;97690.39;110136;1244;60536;-61
2023/10/12 11:52:40;;;;;;;3.40;2.40;;;;;;;31.83;26.41;97685.08;110174;1245;60483;-60
2023/10/12 11:55:20;;;;;;;2.90;1.90;;;;;;;32.19;26.28;97677.70;110112;1244;72278;-59
2023/10/12 11:58:02;;;;;;;;;;;;;;;32.60;25.61;97671.17;110116;1245;68677;-61
2023/10/12 12:00:36;;;;;;;2.60;2.10;;;;;;;33.60;25.99;97666.89;110123;1245;68546;-60
2023/10/12 12:03:08;;;;;;;4.20;2.50;;;;;;;34.11;24.78;97661.48;110086;1243;60513;-60
2023/10/12 12:05:39;;;;;;;4.10;2.20;;;;;;;34.14;24.98;97660.52;110129;1244;60584;-60
2023/10/12 12:08:15;;;;;;;4.80;2.50;;;;;;;34.27;23.98;97664.21;110182;1241;72247;-60
2023/10/12 12:10:54;;;;;;;3.10;2.00;;;;;;;33.27;24.85;97656.90;110136;1241;69305;-61
2023/10/12 12:13:23;;;;;;;5.60;2.10;;;;;;;32.62;25.10;97661.95;110123;1244;68309;-60
2023/10/12 12:15:55;;;;;;;2.40;1.90;;;;;;;32.82;25.35;97656.13;110166;1241;60539;-60
2023/10/12 12:18:27;;;;;;;3.40;1.90;;;;;;;32.88;26.06;97657.02;110155;1245;60495;-60
2023/10/12 12:20:57;;;;;;;4.40;2.30;;;;;;;33.87;25.10;97653.84;110161;1245;72406;-60
2023/10/12 12:23:27;;;;;;;2.90;1.80;;;;;;;33.89;24.59;97647.58;110167;1244;69721;-61
2023/10/12 12:26:04;;;;;;;3.30;2.10;;;;;;;33.25;24.87;97640.23;110113;1245;69854;-60
2023/10/12 12:28:49;;;;;;;4.00;1.90;;;;;;;33.23;24.75;97642.92;110162;1241;60523;-60
2023/10/12 12:31:20;;;;;;;4.90;1.90;;;;;;;33.28;25.17;97639.13;110125;1245;60495;-60
2023/10/12 12:33:50;;;;;;;3.60;1.70;;;;;;;34.21;24.58;97635.52;110121;1241;72152;-60
2023/10/12 12:36:22;;;;;;;2.50;1.90;;;;;;;33.91;24.69;97631.65;110133;1250;69718;-59
2023/10/12 12:38:57;;;;;;;3.00;1.60;;;;;;;34.08;24.00;97632.30;110126;1245;69917;-61
2023/10/12 12:41:30;;;;;;;3.20;1.80;;;;;;;33.95;24.61;97629.63;110110;1245;60622;-61
2023/10/12 12:44:00;;;;;;;3.20;2.00;;;;;;;33.70;24.86;97622.40;110117;1241;60542;-61
2023/10/12 12:46:30;;;;;;;4.40;2.10;;;;;;;33.68;24.54;97622.33;110153;1241;71607;-61
2023/10/12 12:49:00;;;;;;;3.70;2.30;;;;;;;33.38;24.77;97620.08;110199;1244;69689;-61
2023/10/12 12:51:29;;;;;;;3.30;1.70;;;;;;;33.39;24.72;97618.98;110106;1241;69920;-60
2023/10/12 12:54:02;;;;;;;4.30;2.00;;;;;;;33.04;24.74;97616.33;110098;1243;60568;-60
2023/10/12 12:56:31;;;;;;;3.10;2.10;;;;;;;32.36;25.62;97614.23;110108;1246;60509;-60
2023/10/12 12:59:04;;;;;;;3.00;1.50;;;;;;;32.22;25.96;97611.76;110135;1243;72103;-60
2023/10/12 13:01:35;;;;;;;2.90;1.70;;;;;;;32.12;25.92;97611.22;110141;1249;68694;-62
2023/10/12 13:04:05;;;;;;;4.30;1.70;;;;;;;32.29;25.98;97607.62;110117;1241;68471;-60
2023/10/12 13:06:34;;;;;;;4.30;1.70;;;;;;;32.82;25.22;97606.07;110118;1246;60553;-60
2023/10/12 13:09:04;;;;;;;4.30;2.50;;;;;;;33.29;25.01;97601.56;110099;1243;60465;-60
2023/10/12 13:11:33;;;;;;;7.10;2.70;;;;;;;32.73;25.07;97600.55;110123;1245;72456;-60
2023/10/12 13:14:03;;;;;;;2.90;1.80;;;;;;;32.13;25.69;97596.10;110146;1246;69226;-60
2023/10/12 13:16:32;;;;;;;3.70;2.00;;;;;;;31.67;26.67;97593.39;110102;1245;69220;-60
2023/10/12 13:19:04;;;;;;;3.30;1.60;;;;;;;32.14;26.07;97587.04;110105;1244;60877;-62
2023/10/12 13:21:33;;;;;;;2.90;1.60;;;;;;;32.38;25.61;97583.76;110076;1245;60509;-60
2023/10/12 13:24:06;;;;;;;4.90;1.50;;;;;;;32.83;25.13;97580.67;110127;1242;72478;-60
2023/10/12 13:26:43;;;;;;;3.70;1.80;;;;;;;33.43;24.74;97578.61;110095;1245;69160;-60
2023/10/12 13:29:13;;;;;;;5.00;1.90;;;;;;;33.95;24.54;97576.92;110121;1245;68729;-60
2023/10/12 13:31:43;;;;;;;5.90;2.30;;;;;;;34.11;24.05;97580.16;110098;1244;60450;-60
2023/10/12 13:34:13;;;;;;;4.00;1.90;;;;;;;33.45;24.76;97575.16;110095;1246;60480;-60
2023/10/12 13:36:43;;;;;;;3.10;1.80;;;;;;;32.43;25.72;97576.77;110057;1246;71976;-59
2023/10/12 13:39:12;;;;;;;6.00;2.30;;;;;;;31.95;26.08;97576.29;110120;1245;70185;-60